New Douglas, Illinois
Current Conditions -  °F | °C
As of 2:35 AM on Saturday 29 Nov 2014 (Local Time) from K3LF Reporting Station
Clear Clear  
Wind Chill: 30°   Ceiling: Unl
Heat Index: 37°   Visibility: 10mi
Dew Point: 32°   Wind: 10mph
Humidity: 83%   Direction: 160°SSE
Pressure: 29.84"   Gusts: NA
Location:  38.97°N, 89.67°W
Report Text: K3LF 290835Z AUTO 16009KT 10SM CLR 03/00 A2984 RMK AO2 T00280002
Loading
Personal Weather Stations






























Interactive Weather Map New forecast layout! Learn more

10-Day Weather Forecast

Advertisements
Track Severe Weather on mobile